Time;durP1;ratioP1;P1;durP2;ratioP2;P2;SDS_P1;SDS_P2;PMS_P1;PMS_P2;Temp;Humidity;BMP_temperature;BMP_pressure;BME280_temperature;BME280_humidity;BME280_pressure;Samples;Min_cycle;Max_cycle;Signal;HPM_P1;HPM_P2
2022/09/03 00:00:08;;;;;;;12.18;6.60;;;;;;;;;;4909254;29;20056;-79
2022/09/03 00:03:05;;;;;;;13.20;5.65;;;;;;;;;;4904385;29;20044;-80
2022/09/03 00:06:01;;;;;;;10.95;5.63;;;;;;;;;;4902446;29;20044;-77
2022/09/03 00:08:53;;;;;;;12.05;5.75;;;;;;;;;;4920488;29;20048;-79
2022/09/03 00:11:49;;;;;;;11.15;5.68;;;;;;;;;;4902619;29;20044;-78
2022/09/03 00:14:41;;;;;;;10.20;6.45;;;;;;;;;;4921517;29;20052;-78
2022/09/03 00:17:36;;;;;;;12.65;6.28;;;;;;;;;;4903245;29;20049;-77
2022/09/03 00:20:25;;;;;;;8.65;5.97;;;;;;;;;;4900615;29;20049;-78
2022/09/03 00:23:19;;;;;;;11.32;5.95;;;;;;;;;;4901136;29;20044;-78
2022/09/03 00:26:13;;;;;;;9.30;5.80;;;;;;;;;;4901338;29;20044;-79
2022/09/03 00:29:08;;;;;;;;;;;;;;;;;;4907484;29;20403;-78
2022/09/03 00:32:02;;;;;;;12.27;6.47;;;;;;;;;;4901322;29;19923;-77
2022/09/03 00:34:55;;;;;;;8.50;6.27;;;;;;;;;;4900774;29;20040;-78
2022/09/03 00:37:41;;;;;;;18.13;7.05;;;;;;;;;;4889383;29;20495;-78
2022/09/03 00:40:44;;;;;;;8.52;5.97;;;;;;;;;;4901223;29;20052;-78
2022/09/03 00:43:57;;;;;;;9.85;6.38;;;;;;;;;;4900819;29;20052;-79
2022/09/03 00:47:27;;;;;;;9.50;5.97;;;;;;;;;;4919536;29;20044;-76
2022/09/03 00:50:15;;;;;;;12.00;5.75;;;;;;;;;;4893629;29;20499;-81
2022/09/03 00:53:26;;;;;;;11.20;7.28;;;;;;;;;;4900762;29;20052;-79
2022/09/03 00:56:34;;;;;;;10.10;6.40;;;;;;;;;;4919418;29;20060;-80
2022/09/03 00:59:25;;;;;;;13.25;6.15;;;;;;;;;;4900645;29;20052;-80
2022/09/03 01:02:17;;;;;;;9.70;6.13;;;;;;;;;;4901024;29;20048;-78
2022/09/03 01:05:21;;;;;;;11.20;6.30;;;;;;;;;;4900755;29;20407;-80
2022/09/03 01:08:32;;;;;;;12.23;6.72;;;;;;;;;;4900672;29;20052;-80
2022/09/03 01:11:36;;;;;;;11.80;6.60;;;;;;;;;;4906784;29;20498;-80
2022/09/03 01:14:51;;;;;;;10.85;6.18;;;;;;;;;;4900641;29;20483;-80
2022/09/03 01:17:37;;;;;;;11.45;6.75;;;;;;;;;;4900151;29;20053;-81
2022/09/03 01:20:25;;;;;;;12.85;6.72;;;;;;;;;;4900603;29;20041;-82
2022/09/03 01:23:47;;;;;;;10.60;6.40;;;;;;;;;;4900061;29;20044;-81
2022/09/03 01:26:42;;;;;;;9.88;6.30;;;;;;;;;;4900057;29;20509;-81
2022/09/03 01:29:54;;;;;;;10.60;6.07;;;;;;;;;;4900624;29;20056;-81
2022/09/03 01:33:14;;;;;;;10.27;5.75;;;;;;;;;;4905328;29;20420;-82
2022/09/03 01:36:21;;;;;;;9.82;6.82;;;;;;;;;;4899976;29;20487;-81
2022/09/03 01:39:15;;;;;;;10.40;6.72;;;;;;;;;;4899774;29;20475;-80
2022/09/03 01:42:15;;;;;;;13.10;6.85;;;;;;;;;;4899861;29;20045;-81
2022/09/03 01:45:20;;;;;;;9.35;6.43;;;;;;;;;;4900080;29;20049;-81
2022/09/03 01:48:42;;;;;;;15.80;7.63;;;;;;;;;;4899530;29;20041;-81
2022/09/03 01:51:30;;;;;;;14.75;7.70;;;;;;;;;;4899619;29;20051;-81
2022/09/03 01:54:36;;;;;;;14.25;7.07;;;;;;;;;;4911918;29;20056;-82
2022/09/03 01:57:37;;;;;;;10.90;7.30;;;;;;;;;;4911975;29;20057;-82
2022/09/03 02:00:27;;;;;;;10.93;7.07;;;;;;;;;;4905801;29;20401;-81
2022/09/03 02:03:15;;;;;;;12.65;7.28;;;;;;;;;;4906026;29;20287;-83
2022/09/03 02:06:02;;;;;;;13.18;7.65;;;;;;;;;;4891707;29;20391;-82
2022/09/03 02:08:48;;;;;;;10.90;7.10;;;;;;;;;;4899130;29;20053;-81
2022/09/03 02:11:33;;;;;;;11.98;7.15;;;;;;;;;;4899385;29;20410;-81
2022/09/03 02:14:19;;;;;;;11.75;7.13;;;;;;;;;;4905985;29;20045;-80
2022/09/03 02:17:06;;;;;;;15.90;7.40;;;;;;;;;;4899467;29;20066;-81
2022/09/03 02:19:51;;;;;;;12.27;7.45;;;;;;;;;;4899297;29;20045;-81
2022/09/03 02:22:38;;;;;;;15.05;7.57;;;;;;;;;;4905313;29;20052;-81
2022/09/03 02:25:31;;;;;;;13.43;7.00;;;;;;;;;;4899236;29;20052;-81
2022/09/03 02:28:16;;;;;;;13.05;7.07;;;;;;;;;;4898921;29;20399;-79
2022/09/03 02:31:02;;;;;;;11.05;7.30;;;;;;;;;;4911447;29;20483;-79
2022/09/03 02:33:48;;;;;;;14.57;7.00;;;;;;;;;;4899165;29;20048;-81
2022/09/03 02:36:37;;;;;;;12.65;6.90;;;;;;;;;;4898526;29;20052;-80
2022/09/03 02:39:22;;;;;;;15.07;7.63;;;;;;;;;;4905018;29;20407;-82
2022/09/03 02:42:11;;;;;;;17.73;8.00;;;;;;;;;;4898325;29;20044;-81
2022/09/03 02:45:20;;;;;;;18.02;8.73;;;;;;;;;;4899001;29;20050;-80
2022/09/03 02:48:08;;;;;;;17.67;9.45;;;;;;;;;;4898517;29;20048;-83
2022/09/03 02:50:54;;;;;;;21.10;9.73;;;;;;;;;;4898849;29;20444;-81
2022/09/03 02:53:39;;;;;;;23.40;11.50;;;;;;;;;;4898909;29;20049;-80
2022/09/03 02:56:26;;;;;;;23.15;10.65;;;;;;;;;;4904033;29;20049;-80
2022/09/03 02:59:11;;;;;;;24.25;10.18;;;;;;;;;;4904902;29;20044;-80
2022/09/03 03:01:57;;;;;;;20.33;10.40;;;;;;;;;;4898659;29;20041;-80
2022/09/03 03:04:42;;;;;;;25.25;10.48;;;;;;;;;;4904703;29;20052;-81
2022/09/03 03:07:36;;;;;;;21.42;10.93;;;;;;;;;;4898471;29;20049;-81
2022/09/03 03:10:21;;;;;;;24.52;10.82;;;;;;;;;;4898339;29;20045;-80
2022/09/03 03:13:07;;;;;;;24.85;11.27;;;;;;;;;;4898672;29;20048;-80
2022/09/03 03:15:58;;;;;;;25.10;10.73;;;;;;;;;;4898691;29;20036;-80
2022/09/03 03:18:47;;;;;;;24.23;11.23;;;;;;;;;;4898566;29;20045;-80
2022/09/03 03:21:32;;;;;;;23.23;11.25;;;;;;;;;;4898549;29;20044;-80
2022/09/03 03:24:17;;;;;;;16.65;9.77;;;;;;;;;;4898324;29;20044;-81
2022/09/03 03:27:05;;;;;;;20.35;10.07;;;;;;;;;;4898636;29;20511;-80
2022/09/03 03:29:50;;;;;;;20.38;10.00;;;;;;;;;;4898656;29;20052;-79
2022/09/03 03:32:37;;;;;;;16.08;8.93;;;;;;;;;;4898256;29;20052;-80
2022/09/03 03:35:23;;;;;;;16.55;9.05;;;;;;;;;;4898268;29;20041;-82
2022/09/03 03:38:09;;;;;;;17.67;8.73;;;;;;;;;;4897809;29;20044;-82
2022/09/03 03:40:54;;;;;;;16.08;8.45;;;;;;;;;;4916858;29;20049;-81
2022/09/03 03:43:39;;;;;;;16.27;9.35;;;;;;;;;;4898786;29;20487;-81
2022/09/03 03:46:29;;;;;;;18.00;8.93;;;;;;;;;;4898074;29;20057;-80
2022/09/03 03:49:14;;;;;;;14.80;9.05;;;;;;;;;;4898119;29;20049;-82
2022/09/03 03:52:01;;;;;;;15.15;9.10;;;;;;;;;;4897888;29;20041;-81
2022/09/03 03:54:49;;;;;;;14.93;8.63;;;;;;;;;;4899494;29;20052;-83
2022/09/03 03:57:35;;;;;;;16.17;7.97;;;;;;;;;;4901798;29;20063;-82
2022/09/03 04:00:20;;;;;;;17.65;8.43;;;;;;;;;;4901611;29;20048;-83
2022/09/03 04:03:06;;;;;;;15.07;8.23;;;;;;;;;;4900623;29;20044;-81
2022/09/03 04:05:55;;;;;;;20.17;8.70;;;;;;;;;;4901430;29;20040;-82
2022/09/03 04:08:43;;;;;;;16.35;8.65;;;;;;;;;;4901917;29;20400;-81
2022/09/03 04:11:29;;;;;;;15.45;8.65;;;;;;;;;;4906929;29;20391;-81
2022/09/03 04:14:14;;;;;;;14.45;8.63;;;;;;;;;;4901332;29;20491;-81
2022/09/03 04:17:01;;;;;;;19.08;8.73;;;;;;;;;;4901363;29;20052;-81
2022/09/03 04:19:47;;;;;;;16.05;8.85;;;;;;;;;;4901389;29;20045;-81
2022/09/03 04:22:34;;;;;;;17.70;8.85;;;;;;;;;;4900822;29;20325;-81
2022/09/03 04:25:19;;;;;;;19.38;10.02;;;;;;;;;;4901150;29;20056;-79
2022/09/03 04:28:05;;;;;;;23.65;9.40;;;;;;;;;;4907034;29;20056;-79
2022/09/03 04:30:51;;;;;;;17.80;9.43;;;;;;;;;;4901367;29;20045;-80
2022/09/03 04:33:37;;;;;;;16.40;9.45;;;;;;;;;;4900558;29;20045;-79
2022/09/03 04:36:25;;;;;;;16.48;9.00;;;;;;;;;;4900901;29;20483;-80
2022/09/03 04:39:10;;;;;;;16.27;9.30;;;;;;;;;;4900919;29;20045;-80
2022/09/03 04:41:56;;;;;;;14.40;9.35;;;;;;;;;;4900926;29;20082;-78
2022/09/03 04:44:41;;;;;;;21.70;10.25;;;;;;;;;;4900732;29;20065;-79
2022/09/03 04:47:27;;;;;;;15.48;9.15;;;;;;;;;;4900506;29;20049;-80
2022/09/03 04:50:13;;;;;;;16.50;9.50;;;;;;;;;;4900627;29;20048;-80
2022/09/03 04:53:03;;;;;;;18.67;9.95;;;;;;;;;;4900331;29;20052;-79
2022/09/03 04:55:49;;;;;;;18.77;9.60;;;;;;;;;;4900574;29;20052;-79
2022/09/03 04:58:34;;;;;;;24.58;9.80;;;;;;;;;;4906753;29;20632;-80
2022/09/03 05:01:22;;;;;;;21.48;8.98;;;;;;;;;;4900812;29;20053;-80
2022/09/03 05:04:08;;;;;;;20.95;9.27;;;;;;;;;;4900682;29;20045;-79
2022/09/03 05:06:53;;;;;;;18.27;9.40;;;;;;;;;;4900219;29;20044;-80
2022/09/03 05:09:39;;;;;;;18.65;8.98;;;;;;;;;;4900175;29;20053;-80
2022/09/03 05:12:24;;;;;;;18.80;9.50;;;;;;;;;;4900291;29;20053;-78
2022/09/03 05:15:10;;;;;;;26.02;9.48;;;;;;;;;;4900477;29;20048;-78
2022/09/03 05:17:58;;;;;;;19.02;9.00;;;;;;;;;;4900373;29;20048;-79
2022/09/03 05:20:43;;;;;;;21.77;9.57;;;;;;;;;;4906876;29;20045;-79
2022/09/03 05:23:29;;;;;;;18.08;9.35;;;;;;;;;;4900130;29;20048;-79
2022/09/03 05:26:18;;;;;;;18.45;9.18;;;;;;;;;;4900137;29;20052;-79
2022/09/03 05:29:09;;;;;;;16.23;9.40;;;;;;;;;;4899519;29;20483;-79
2022/09/03 05:31:54;;;;;;;20.55;9.75;;;;;;;;;;4900925;29;20041;-78
2022/09/03 05:34:40;;;;;;;18.35;8.98;;;;;;;;;;4901655;29;20048;-79
2022/09/03 05:37:24;;;;;;;15.50;9.15;;;;;;;;;;4900525;29;20048;-79
2022/09/03 05:40:10;;;;;;;17.17;9.73;;;;;;;;;;4901684;29;20052;-79
2022/09/03 05:42:57;;;;;;;16.77;9.77;;;;;;;;;;4903197;29;20060;-80
2022/09/03 05:45:42;;;;;;;16.00;9.20;;;;;;;;;;4902860;29;20048;-79
2022/09/03 05:48:29;;;;;;;18.52;9.40;;;;;;;;;;4908484;29;20503;-79
2022/09/03 05:51:16;;;;;;;16.40;8.88;;;;;;;;;;4901668;29;20048;-80
2022/09/03 05:54:02;;;;;;;18.23;9.20;;;;;;;;;;4899951;29;20479;-80
2022/09/03 05:56:48;;;;;;;16.05;8.77;;;;;;;;;;4899563;29;20406;-80
2022/09/03 05:59:33;;;;;;;15.02;8.73;;;;;;;;;;4899533;29;20052;-80
2022/09/03 06:02:19;;;;;;;18.20;9.00;;;;;;;;;;4899751;29;20479;-81
2022/09/03 06:05:04;;;;;;;17.15;9.23;;;;;;;;;;4899371;29;20052;-79
2022/09/03 06:07:50;;;;;;;18.55;9.32;;;;;;;;;;4899151;29;20044;-80
2022/09/03 06:10:36;;;;;;;17.55;8.65;;;;;;;;;;4899259;29;20056;-81
2022/09/03 06:13:21;;;;;;;14.52;9.07;;;;;;;;;;4899331;29;20036;-81
2022/09/03 06:16:07;;;;;;;18.85;9.00;;;;;;;;;;4898957;29;20044;-81
2022/09/03 06:18:52;;;;;;;17.52;8.15;;;;;;;;;;4897588;29;20060;-81
2022/09/03 06:21:41;;;;;;;20.08;8.68;;;;;;;;;;4899065;29;20057;-80
2022/09/03 06:24:28;;;;;;;15.05;9.57;;;;;;;;;;4898793;29;20041;-82
2022/09/03 06:27:13;;;;;;;15.90;9.13;;;;;;;;;;4898914;29;20049;-80
2022/09/03 06:29:59;;;;;;;18.58;8.40;;;;;;;;;;4898945;29;20044;-80
2022/09/03 06:32:52;;;;;;;14.60;8.60;;;;;;;;;;4905501;29;20040;-81
2022/09/03 06:35:38;;;;;;;14.68;8.00;;;;;;;;;;4904475;29;20044;-81
2022/09/03 06:38:26;;;;;;;12.43;7.93;;;;;;;;;;4897957;29;20052;-82
2022/09/03 06:41:12;;;;;;;17.00;8.35;;;;;;;;;;4898131;29;20399;-80
2022/09/03 06:44:03;;;;;;;14.52;8.55;;;;;;;;;;4898753;29;20044;-80
2022/09/03 06:46:52;;;;;;;15.77;8.98;;;;;;;;;;4898730;29;20041;-81
2022/09/03 06:49:37;;;;;;;15.45;8.45;;;;;;;;;;4916855;29;20411;-81
2022/09/03 06:52:22;;;;;;;19.48;8.68;;;;;;;;;;4904688;29;20045;-81
2022/09/03 06:55:08;;;;;;;17.70;8.70;;;;;;;;;;4917398;29;20052;-79
2022/09/03 06:57:56;;;;;;;13.55;8.50;;;;;;;;;;4898340;29;20048;-80
2022/09/03 07:00:41;;;;;;;12.57;7.47;;;;;;;;;;4898371;29;20044;-80
2022/09/03 07:03:26;;;;;;;13.88;8.35;;;;;;;;;;4898091;29;20048;-81
2022/09/03 07:06:17;;;;;;;12.70;7.88;;;;;;;;;;4898219;29;20056;-81
2022/09/03 07:09:07;;;;;;;15.95;8.25;;;;;;;;;;4903891;29;20680;-81
2022/09/03 07:11:53;;;;;;;19.60;8.05;;;;;;;;;;4896603;29;20044;-79
2022/09/03 07:14:38;;;;;;;15.90;8.20;;;;;;;;;;4897346;29;20511;-80
2022/09/03 07:17:23;;;;;;;15.63;7.88;;;;;;;;;;4898334;29;20395;-80
2022/09/03 07:20:09;;;;;;;14.25;7.40;;;;;;;;;;4903462;29;20040;-81
2022/09/03 07:22:57;;;;;;;12.65;7.95;;;;;;;;;;4898586;29;20044;-80
2022/09/03 07:25:42;;;;;;;15.73;10.00;;;;;;;;;;4898682;29;20044;-80
2022/09/03 07:28:29;;;;;;;14.02;8.57;;;;;;;;;;4899018;29;20485;-80
2022/09/03 07:31:18;;;;;;;17.17;9.02;;;;;;;;;;4902182;29;20049;-81
2022/09/03 07:34:06;;;;;;;13.70;8.32;;;;;;;;;;4908750;29;20049;-80
2022/09/03 07:36:51;;;;;;;13.10;8.30;;;;;;;;;;4901855;29;20398;-81
2022/09/03 07:39:37;;;;;;;12.93;8.05;;;;;;;;;;4908185;29;20414;-81
2022/09/03 07:42:22;;;;;;;14.30;8.57;;;;;;;;;;4908131;29;20049;-80
2022/09/03 07:45:12;;;;;;;14.63;9.25;;;;;;;;;;4908345;29;20375;-79
2022/09/03 07:47:58;;;;;;;13.85;8.57;;;;;;;;;;4901909;29;20052;-81
2022/09/03 07:50:46;;;;;;;11.00;7.20;;;;;;;;;;4901738;29;20048;-82
2022/09/03 07:53:32;;;;;;;13.30;7.75;;;;;;;;;;4902040;29;20041;-81
2022/09/03 07:56:18;;;;;;;12.50;8.38;;;;;;;;;;4901541;29;20395;-80
2022/09/03 07:59:04;;;;;;;12.18;7.97;;;;;;;;;;4906903;29;20044;-81
2022/09/03 08:01:49;;;;;;;15.88;8.50;;;;;;;;;;4902125;29;20048;-81
2022/09/03 08:04:35;;;;;;;13.35;9.02;;;;;;;;;;4907672;29;20475;-82
2022/09/03 08:07:20;;;;;;;15.43;8.93;;;;;;;;;;4907644;29;20064;-77
2022/09/03 08:10:06;;;;;;;18.33;8.32;;;;;;;;;;4900725;29;20160;-76
2022/09/03 08:12:52;;;;;;;13.32;8.57;;;;;;;;;;4901458;29;20045;-78
2022/09/03 08:15:39;;;;;;;16.67;9.25;;;;;;;;;;4907637;29;20048;-80
2022/09/03 08:18:26;;;;;;;12.38;8.18;;;;;;;;;;4901522;29;20048;-80
2022/09/03 08:21:15;;;;;;;14.75;8.95;;;;;;;;;;4901485;29;20048;-80
2022/09/03 08:24:04;;;;;;;17.40;8.68;;;;;;;;;;4901802;29;20467;-78
2022/09/03 08:26:50;;;;;;;16.33;9.15;;;;;;;;;;4901610;29;20032;-77
2022/09/03 08:29:36;;;;;;;13.73;9.00;;;;;;;;;;4901174;29;20052;-78
2022/09/03 08:32:21;;;;;;;13.15;8.57;;;;;;;;;;4907320;29;20056;-78
2022/09/03 08:35:08;;;;;;;16.42;9.55;;;;;;;;;;4901464;29;20387;-77
2022/09/03 08:37:54;;;;;;;17.08;8.88;;;;;;;;;;4900857;29;20487;-78
2022/09/03 08:40:39;;;;;;;13.95;8.55;;;;;;;;;;4900109;29;20053;-77
2022/09/03 08:43:25;;;;;;;12.27;8.10;;;;;;;;;;4901006;29;20049;-77
2022/09/03 08:46:11;;;;;;;16.40;9.00;;;;;;;;;;4900712;29;20479;-78
2022/09/03 08:48:56;;;;;;;14.73;9.07;;;;;;;;;;4900455;29;20053;-78
2022/09/03 08:51:43;;;;;;;13.90;7.63;;;;;;;;;;4900732;29;20048;-77
2022/09/03 08:54:30;;;;;;;13.10;7.88;;;;;;;;;;4900453;29;20049;-78
2022/09/03 08:57:19;;;;;;;15.20;8.80;;;;;;;;;;4906795;29;20052;-78
2022/09/03 09:00:05;;;;;;;13.00;7.85;;;;;;;;;;4906891;29;20045;-78
2022/09/03 09:03:11;;;;;;;10.07;7.18;;;;;;;;;;4900569;29;20048;-77
2022/09/03 09:06:12;;;;;;;14.18;7.00;;;;;;;;;;4900759;29;20060;-78
2022/09/03 09:09:06;;;;;;;10.60;7.18;;;;;;;;;;4906361;29;20044;-78
2022/09/03 09:12:13;;;;;;;18.00;8.10;;;;;;;;;;4900283;29;20057;-77
2022/09/03 09:15:10;;;;;;;13.32;7.68;;;;;;;;;;4900146;29;20053;-77
2022/09/03 09:17:56;;;;;;;13.35;8.15;;;;;;;;;;4900457;29;20075;-77
2022/09/03 09:20:51;;;;;;;12.50;8.07;;;;;;;;;;4900301;29;20049;-77
2022/09/03 09:23:42;;;;;;;16.52;7.85;;;;;;;;;;4900122;29;20044;-76
2022/09/03 09:26:27;;;;;;;11.55;7.75;;;;;;;;;;4900057;29;20045;-76
2022/09/03 09:29:14;;;;;;;11.63;6.63;;;;;;;;;;4899977;29;20053;-79
2022/09/03 09:32:00;;;;;;;11.20;7.35;;;;;;;;;;4900236;29;20044;-77
2022/09/03 09:34:46;;;;;;;10.23;7.25;;;;;;;;;;4906110;29;20053;-77
2022/09/03 09:37:31;;;;;;;10.88;7.25;;;;;;;;;;4902933;29;20044;-77
2022/09/03 09:40:33;;;;;;;12.70;7.55;;;;;;;;;;4899348;29;20489;-77
2022/09/03 09:43:20;;;;;;;15.98;7.50;;;;;;;;;;4899453;29;20494;-77
2022/09/03 09:46:21;;;;;;;9.95;7.05;;;;;;;;;;4900026;29;20053;-77
2022/09/03 09:49:37;;;;;;;10.43;6.90;;;;;;;;;;4899483;29;20044;-78
2022/09/03 09:52:27;;;;;;;12.13;6.75;;;;;;;;;;4898277;29;20048;-78
2022/09/03 09:55:18;;;;;;;8.57;6.63;;;;;;;;;;4899952;29;20049;-75
2022/09/03 09:58:09;;;;;;;9.70;6.93;;;;;;;;;;4899572;29;20040;-75
2022/09/03 10:01:12;;;;;;;8.15;5.75;;;;;;;;;;4899572;29;20491;-75
2022/09/03 10:04:10;;;;;;;8.63;6.50;;;;;;;;;;4899045;29;20056;-77
2022/09/03 10:07:01;;;;;;;10.55;6.60;;;;;;;;;;4899123;29;20052;-79
2022/09/03 10:09:58;;;;;;;7.00;5.88;;;;;;;;;;4898859;29;20056;-78
2022/09/03 10:12:58;;;;;;;8.30;5.90;;;;;;;;;;4899223;29;20049;-80
2022/09/03 10:15:42;;;;;;;10.75;6.97;;;;;;;;;;4899181;29;20494;-78
2022/09/03 10:18:42;;;;;;;10.20;6.32;;;;;;;;;;4905427;29;20041;-79
2022/09/03 10:21:54;;;;;;;11.43;6.68;;;;;;;;;;4898981;29;20052;-77
2022/09/03 10:24:57;;;;;;;8.82;6.72;;;;;;;;;;4898375;29;20049;-77
2022/09/03 10:27:45;;;;;;;8.82;6.28;;;;;;;;;;4898457;29;20045;-76
2022/09/03 10:30:45;;;;;;;9.25;6.90;;;;;;;;;;4898301;29;20398;-77
2022/09/03 10:33:48;;;;;;;9.57;6.82;;;;;;;;;;4904272;29;20398;-77
2022/09/03 10:36:51;;;;;;;11.80;6.90;;;;;;;;;;4897958;29;20487;-75
2022/09/03 10:39:57;;;;;;;8.20;6.65;;;;;;;;;;4898690;29;20424;-77
2022/09/03 10:43:22;;;;;;;9.32;6.53;;;;;;;;;;4898553;29;20048;-78
2022/09/03 10:46:18;;;;;;;9.85;6.53;;;;;;;;;;4904926;29;20052;-77
2022/09/03 10:49:50;;;;;;;11.60;6.75;;;;;;;;;;4904474;29;20048;-78
2022/09/03 10:52:38;;;;;;;10.75;6.60;;;;;;;;;;4859294;29;20049;-77
2022/09/03 10:55:52;;;;;;;10.57;6.97;;;;;;;;;;4898816;29;20045;-79
2022/09/03 10:58:59;;;;;;;10.60;7.03;;;;;;;;;;4904886;29;20041;-79
2022/09/03 11:02:22;;;;;;;8.57;6.18;;;;;;;;;;4898592;29;20423;-76
2022/09/03 11:05:21;;;;;;;9.38;6.45;;;;;;;;;;4897574;29;20495;-76
2022/09/03 11:08:30;;;;;;;10.30;6.25;;;;;;;;;;4898477;29;20056;-78
2022/09/03 11:11:18;;;;;;;8.50;6.28;;;;;;;;;;4904461;29;20052;-77
2022/09/03 11:14:14;;;;;;;9.70;6.32;;;;;;;;;;4904166;29;20056;-80
2022/09/03 11:17:10;;;;;;;6.93;5.93;;;;;;;;;;4901720;29;20041;-78
2022/09/03 11:20:19;;;;;;;9.70;6.50;;;;;;;;;;4898346;29;20041;-80
2022/09/03 11:23:08;;;;;;;9.50;6.75;;;;;;;;;;4904253;29;20041;-77
2022/09/03 11:25:59;;;;;;;9.02;5.97;;;;;;;;;;4898128;29;20049;-77
2022/09/03 11:29:09;;;;;;;9.27;6.55;;;;;;;;;;4897707;29;20053;-77
2022/09/03 11:32:06;;;;;;;9.30;6.00;;;;;;;;;;4898660;29;20052;-76
2022/09/03 11:34:54;;;;;;;7.82;5.68;;;;;;;;;;4898004;29;20052;-77
2022/09/03 11:37:57;;;;;;;8.90;6.20;;;;;;;;;;4900775;29;20049;-81
2022/09/03 11:41:20;;;;;;;9.50;7.03;;;;;;;;;;4904495;29;20395;-78
2022/09/03 11:44:37;;;;;;;9.60;6.10;;;;;;;;;;4897542;29;20036;-78
2022/09/03 11:47:38;;;;;;;7.25;5.47;;;;;;;;;;4904045;29;20407;-80
2022/09/03 11:50:26;;;;;;;8.65;5.50;;;;;;;;;;4897731;29;20053;-78
2022/09/03 11:53:13;;;;;;;8.75;5.15;;;;;;;;;;4897999;29;20390;-76
2022/09/03 11:56:05;;;;;;;7.82;5.78;;;;;;;;;;4904073;29;20048;-77
2022/09/03 11:59:12;;;;;;;7.93;5.30;;;;;;;;;;4898064;29;20053;-76
2022/09/03 12:02:04;;;;;;;7.32;5.60;;;;;;;;;;4897801;29;20406;-76
2022/09/03 12:05:02;;;;;;;7.22;5.35;;;;;;;;;;4898009;29;20037;-77
2022/09/03 12:08:35;;;;;;;6.53;5.45;;;;;;;;;;4896723;29;20048;-77
2022/09/03 12:11:46;;;;;;;6.82;4.90;;;;;;;;;;4896685;29;20064;-77
2022/09/03 12:14:43;;;;;;;7.32;5.07;;;;;;;;;;4896555;29;20052;-78
2022/09/03 12:17:48;;;;;;;5.35;4.40;;;;;;;;;;4901215;29;20040;-77
2022/09/03 12:20:34;;;;;;;7.80;4.90;;;;;;;;;;4901156;29;20049;-77
2022/09/03 12:23:30;;;;;;;8.40;4.68;;;;;;;;;;4907296;29;20045;-76
2022/09/03 12:26:22;;;;;;;8.10;4.93;;;;;;;;;;4900694;29;20052;-78
2022/09/03 12:29:27;;;;;;;6.20;4.70;;;;;;;;;;4900854;29;20049;-77
2022/09/03 12:32:12;;;;;;;;;;;;;;;;;;4901525;29;20049;-77
2022/09/03 12:35:10;;;;;;;5.30;4.28;;;;;;;;;;4901071;29;20274;-76
2022/09/03 12:37:55;;;;;;;7.45;4.38;;;;;;;;;;4900626;29;20410;-78
2022/09/03 12:40:42;;;;;;;4.93;4.07;;;;;;;;;;4900273;29;20056;-77
2022/09/03 12:43:28;;;;;;;6.20;4.47;;;;;;;;;;4900437;29;20487;-77
2022/09/03 12:46:14;;;;;;;8.18;4.68;;;;;;;;;;4900699;29;20048;-78
2022/09/03 12:49:06;;;;;;;4.72;3.92;;;;;;;;;;4900643;29;20044;-78
2022/09/03 12:52:01;;;;;;;5.45;4.30;;;;;;;;;;4900572;29;20045;-77
2022/09/03 12:54:57;;;;;;;4.70;4.15;;;;;;;;;;4900673;29;20044;-78
2022/09/03 12:57:56;;;;;;;5.50;4.43;;;;;;;;;;4900370;29;20403;-77
2022/09/03 13:00:48;;;;;;;5.03;3.83;;;;;;;;;;4900303;29;20057;-77
2022/09/03 13:03:53;;;;;;;6.07;3.90;;;;;;;;;;4919095;29;20048;-76
2022/09/03 13:06:48;;;;;;;4.85;3.60;;;;;;;;;;4907477;29;20056;-77
2022/09/03 13:09:36;;;;;;;4.68;3.90;;;;;;;;;;4900362;29;20053;-77
2022/09/03 13:12:40;;;;;;;5.78;3.92;;;;;;;;;;4900296;29;20044;-76
2022/09/03 13:15:27;;;;;;;4.70;3.85;;;;;;;;;;4906549;29;20040;-77
2022/09/03 13:18:19;;;;;;;4.40;3.70;;;;;;;;;;4900448;29;20040;-77
2022/09/03 13:21:13;;;;;;;4.60;3.60;;;;;;;;;;4906158;29;20052;-78
2022/09/03 13:24:14;;;;;;;4.30;3.53;;;;;;;;;;4899595;29;20057;-78
2022/09/03 13:27:25;;;;;;;4.82;4.00;;;;;;;;;;4896633;29;20462;-77
2022/09/03 13:30:29;;;;;;;5.30;4.03;;;;;;;;;;4886959;29;20053;-76
2022/09/03 13:33:24;;;;;;;;;;;;;;;;;;4898568;29;20576;-77
2022/09/03 13:36:16;;;;;;;4.75;4.13;;;;;;;;;;4899779;29;19919;-76
2022/09/03 13:39:10;;;;;;;5.53;3.78;;;;;;;;;;4899349;29;20395;-76
2022/09/03 13:42:08;;;;;;;4.38;3.35;;;;;;;;;;4904181;29;20487;-76
2022/09/03 13:45:05;;;;;;;4.07;3.53;;;;;;;;;;4898985;29;20044;-76
2022/09/03 13:51:34;;;;;;;4.47;3.50;;;;;;;;;;4899474;29;20041;-79
2022/09/03 13:54:22;;;;;;;7.68;3.90;;;;;;;;;;4899487;29;20056;-76
2022/09/03 13:57:24;;;;;;;4.60;3.88;;;;;;;;;;4899498;29;20053;-77
2022/09/03 14:00:12;;;;;;;4.60;3.92;;;;;;;;;;4899809;29;20049;-77
2022/09/03 14:03:22;;;;;;;5.85;4.50;;;;;;;;;;4899732;29;20052;-76
2022/09/03 14:06:36;;;;;;;6.05;4.47;;;;;;;;;;4905756;29;20494;-77
2022/09/03 14:10:00;;;;;;;6.43;4.07;;;;;;;;;;4899207;29;20487;-78
2022/09/03 14:13:02;;;;;;;5.93;4.30;;;;;;;;;;4899036;29;20052;-76
2022/09/03 14:15:56;;;;;;;5.30;4.30;;;;;;;;;;4899005;29;20503;-76
2022/09/03 14:18:55;;;;;;;5.25;4.05;;;;;;;;;;4899124;29;20487;-77
2022/09/03 14:21:53;;;;;;;4.68;4.20;;;;;;;;;;4898770;29;20494;-76
2022/09/03 14:24:44;;;;;;;4.95;3.60;;;;;;;;;;4899581;29;20048;-76
2022/09/03 14:27:31;;;;;;;4.18;3.63;;;;;;;;;;4899342;29;20045;-76
2022/09/03 14:30:48;;;;;;;4.78;3.40;;;;;;;;;;4905117;29;20044;-78
2022/09/03 14:33:55;;;;;;;4.10;3.17;;;;;;;;;;4905556;29;20044;-75
2022/09/03 14:36:55;;;;;;;4.72;3.40;;;;;;;;;;4898727;29;20048;-77
2022/09/03 14:40:12;;;;;;;4.78;3.55;;;;;;;;;;4898295;29;20052;-76
2022/09/03 14:43:16;;;;;;;4.72;3.50;;;;;;;;;;4905180;29;20499;-76
2022/09/03 14:46:26;;;;;;;4.90;3.33;;;;;;;;;;4905153;29;20052;-77
2022/09/03 14:49:32;;;;;;;4.82;3.50;;;;;;;;;;4898921;29;20052;-77
2022/09/03 14:52:56;;;;;;;5.63;3.67;;;;;;;;;;4884279;29;20052;-77
2022/09/03 14:55:59;;;;;;;3.40;3.10;;;;;;;;;;4898766;29;20052;-77
2022/09/03 14:58:56;;;;;;;6.15;5.32;;;;;;;;;;4898766;29;20478;-77
2022/09/03 15:01:46;;;;;;;5.57;3.67;;;;;;;;;;4898488;29;20052;-76
2022/09/03 15:04:52;;;;;;;4.18;3.53;;;;;;;;;;4898261;29;20491;-76
2022/09/03 15:07:45;;;;;;;5.78;3.55;;;;;;;;;;4898573;29;20044;-77
2022/09/03 15:10:41;;;;;;;4.43;3.30;;;;;;;;;;4898027;29;20403;-77
2022/09/03 15:13:35;;;;;;;5.00;3.30;;;;;;;;;;4898311;29;20052;-77
2022/09/03 15:16:46;;;;;;;4.95;3.47;;;;;;;;;;4904920;29;20367;-77
2022/09/03 15:20:01;;;;;;;4.22;3.28;;;;;;;;;;4904512;29;20053;-77
2022/09/03 15:23:02;;;;;;;4.82;3.70;;;;;;;;;;4898457;29;20395;-77
2022/09/03 15:26:17;;;;;;;6.05;3.50;;;;;;;;;;4898092;29;20053;-77
2022/09/03 15:29:20;;;;;;;7.55;3.05;;;;;;;;;;4898334;29;20052;-78
2022/09/03 15:32:47;;;;;;;4.95;3.42;;;;;;;;;;4898217;29;20495;-77
2022/09/03 15:35:42;;;;;;;5.07;3.83;;;;;;;;;;4904238;29;20048;-77
2022/09/03 15:38:30;;;;;;;6.15;4.18;;;;;;;;;;4897663;29;20503;-78
2022/09/03 15:41:25;;;;;;;6.90;3.65;;;;;;;;;;4898398;29;20499;-77
2022/09/03 15:44:14;;;;;;;5.25;3.83;;;;;;;;;;4898230;29;20041;-77
2022/09/03 15:47:08;;;;;;;7.32;4.50;;;;;;;;;;4898131;29;20049;-76
2022/09/03 15:50:00;;;;;;;6.55;4.63;;;;;;;;;;4898038;29;20406;-76
2022/09/03 15:52:55;;;;;;;6.55;4.22;;;;;;;;;;4901681;29;20048;-78
2022/09/03 15:55:42;;;;;;;4.78;3.72;;;;;;;;;;4901641;29;20052;-77
2022/09/03 15:58:57;;;;;;;5.25;4.03;;;;;;;;;;4901466;29;20471;-76
2022/09/03 16:01:53;;;;;;;5.65;4.47;;;;;;;;;;4907590;29;20053;-77
2022/09/03 16:05:06;;;;;;;5.82;4.10;;;;;;;;;;4901084;29;20048;-76
2022/09/03 16:08:28;;;;;;;7.32;3.97;;;;;;;;;;4901379;29;20057;-76
2022/09/03 16:11:25;;;;;;;5.47;4.15;;;;;;;;;;4901415;29;20503;-77
2022/09/03 16:14:20;;;;;;;6.97;4.20;;;;;;;;;;4901234;29;20483;-76
2022/09/03 16:17:44;;;;;;;6.80;4.25;;;;;;;;;;4901205;29;20048;-76
2022/09/03 16:20:34;;;;;;;8.65;5.32;;;;;;;;;;4886353;29;20052;-76
2022/09/03 16:23:55;;;;;;;11.13;6.22;;;;;;;;;;4901504;29;20052;-76
2022/09/03 16:27:06;;;;;;;7.82;6.00;;;;;;;;;;4900733;29;20049;-76
2022/09/03 16:30:28;;;;;;;7.82;6.03;;;;;;;;;;4906349;29;20044;-75
2022/09/03 16:33:17;;;;;;;8.35;6.50;;;;;;;;;;4894611;29;20044;-76
2022/09/03 16:36:17;;;;;;;9.10;6.60;;;;;;;;;;4900955;29;20040;-77
2022/09/03 16:39:18;;;;;;;9.95;6.90;;;;;;;;;;4901016;29;20053;-75
2022/09/03 16:42:23;;;;;;;11.10;7.32;;;;;;;;;;4900979;29;20048;-76
2022/09/03 16:45:13;;;;;;;10.15;7.72;;;;;;;;;;4900779;29;20060;-77
2022/09/03 16:48:17;;;;;;;9.85;7.38;;;;;;;;;;4900898;29;20044;-75
2022/09/03 16:51:12;;;;;;;11.10;7.43;;;;;;;;;;4900802;29;20410;-75
2022/09/03 16:54:25;;;;;;;10.07;7.43;;;;;;;;;;4907278;29;20049;-76
2022/09/03 16:57:36;;;;;;;9.48;8.02;;;;;;;;;;4900648;29;20398;-77
2022/09/03 17:00:21;;;;;;;11.27;7.90;;;;;;;;;;4900085;29;20041;-77
2022/09/03 17:03:36;;;;;;;13.88;8.50;;;;;;;;;;4900320;29;20061;-76
2022/09/03 17:06:56;;;;;;;11.80;8.43;;;;;;;;;;4907015;29;20045;-76
2022/09/03 17:10:14;;;;;;;16.33;8.98;;;;;;;;;;4900331;29;20048;-76
2022/09/03 17:13:05;;;;;;;14.90;9.13;;;;;;;;;;4900416;29;20044;-76
2022/09/03 17:16:13;;;;;;;12.68;9.75;;;;;;;;;;4900725;29;20057;-77
2022/09/03 17:19:10;;;;;;;16.27;10.45;;;;;;;;;;4906631;29;20052;-78